createdAt,value
2019-03-21T00:00:28.096Z,11.20
2019-03-21T00:05:18.532Z,10.30
2019-03-21T00:10:10.717Z,10.60
2019-03-21T00:15:03.013Z,10.70
2019-03-21T00:19:54.700Z,12.60
2019-03-21T00:24:46.483Z,12.20
2019-03-21T00:29:38.286Z,12.10
2019-03-21T00:34:30.237Z,11.20
2019-03-21T00:39:32.581Z,10.20
2019-03-21T00:44:25.137Z,10.30
2019-03-21T00:49:15.931Z,10.70
2019-03-21T00:54:08.991Z,10.50
2019-03-21T00:59:00.699Z,10.00
2019-03-21T01:03:54.345Z,11.20
2019-03-21T01:08:46.264Z,9.20
2019-03-21T01:13:38.096Z,9.70
2019-03-21T01:18:29.490Z,9.30
2019-03-21T01:23:21.140Z,11.30
2019-03-21T01:28:11.966Z,8.70
2019-03-21T01:33:02.835Z,9.10
2019-03-21T01:37:53.947Z,9.00
2019-03-21T01:42:45.201Z,10.10
2019-03-21T01:47:36.962Z,9.00
2019-03-21T01:52:28.790Z,10.70
2019-03-21T01:57:22.381Z,10.30
2019-03-21T02:02:13.865Z,9.70
2019-03-21T02:07:05.671Z,10.40
2019-03-21T02:11:57.660Z,10.20
2019-03-21T02:16:49.606Z,10.20
2019-03-21T02:21:41.504Z,9.10
2019-03-21T02:26:33.526Z,9.40
2019-03-21T02:31:26.339Z,9.30
2019-03-21T02:36:18.125Z,9.20
2019-03-21T02:41:10.162Z,9.70
2019-03-21T02:46:02.248Z,8.70
2019-03-21T02:50:54.160Z,8.50
2019-03-21T02:55:46.601Z,10.00
2019-03-21T03:00:39.302Z,11.20
2019-03-21T03:05:30.639Z,8.00
2019-03-21T03:10:22.548Z,11.00
2019-03-21T03:15:22.885Z,10.30
2019-03-21T03:20:15.620Z,8.80
2019-03-21T03:25:07.504Z,9.50
2019-03-21T03:29:59.212Z,11.50
2019-03-21T03:34:51.598Z,10.70
2019-03-21T03:39:43.457Z,10.50
2019-03-21T03:44:35.754Z,10.90
2019-03-21T03:49:27.334Z,11.00
2019-03-21T03:54:19.026Z,12.60
2019-03-21T03:59:11.207Z,12.90
2019-03-21T04:04:03.103Z,10.70
2019-03-21T04:08:54.760Z,12.00
2019-03-21T04:13:46.940Z,10.30
2019-03-21T04:18:38.902Z,11.10
2019-03-21T04:23:30.704Z,9.00
2019-03-21T04:28:23.293Z,10.50
2019-03-21T04:33:15.440Z,8.90
2019-03-21T04:38:07.607Z,11.00
2019-03-21T04:42:59.659Z,10.80
2019-03-21T04:47:51.769Z,10.80
2019-03-21T04:52:43.762Z,10.60
2019-03-21T04:57:35.863Z,10.50
2019-03-21T05:02:27.877Z,10.60
2019-03-21T05:07:19.805Z,9.30
2019-03-21T05:12:11.863Z,8.80
2019-03-21T05:17:03.613Z,9.10
2019-03-21T05:21:55.598Z,10.10
2019-03-21T05:26:47.513Z,12.20
2019-03-21T05:31:39.553Z,11.00
2019-03-21T05:36:31.430Z,10.70
2019-03-21T05:41:23.186Z,11.10
2019-03-21T05:46:26.317Z,11.20
2019-03-21T05:51:16.518Z,12.40
2019-03-21T05:56:08.374Z,11.50
2019-03-21T06:01:01.234Z,13.40
2019-03-21T06:05:52.740Z,15.10
2019-03-21T06:10:44.845Z,13.60
2019-03-21T06:15:36.680Z,14.10
2019-03-21T06:20:28.827Z,14.70
2019-03-21T06:25:20.958Z,10.80
2019-03-21T06:30:15.091Z,12.00
2019-03-21T06:35:06.698Z,10.90
2019-03-21T06:40:00.839Z,13.00
2019-03-21T06:44:52.597Z,10.80
2019-03-21T06:49:46.947Z,12.30
2019-03-21T06:54:38.044Z,10.50
2019-03-21T06:59:30.293Z,13.70
2019-03-21T07:04:22.277Z,10.40
2019-03-21T07:09:14.707Z,12.80
2019-03-21T07:14:07.265Z,11.40
2019-03-21T07:18:59.382Z,11.40
2019-03-21T07:23:51.689Z,10.10
2019-03-21T07:28:44.091Z,10.80
2019-03-21T07:33:36.434Z,11.20
2019-03-21T07:38:29.411Z,9.30
2019-03-21T07:43:22.930Z,10.90
2019-03-21T07:48:14.950Z,12.40
2019-03-21T07:53:07.255Z,11.50
2019-03-21T07:58:00.064Z,9.70
2019-03-21T08:02:52.356Z,10.30
2019-03-21T08:07:44.846Z,10.70
2019-03-21T08:12:37.224Z,10.40
2019-03-21T08:17:29.636Z,10.30
2019-03-21T08:22:21.938Z,13.00
2019-03-21T08:27:16.675Z,9.90
2019-03-21T08:32:09.262Z,11.10
2019-03-21T08:37:01.652Z,10.00
2019-03-21T08:41:54.329Z,8.40
2019-03-21T08:46:46.837Z,9.50
2019-03-21T08:51:38.970Z,9.10
2019-03-21T08:56:33.153Z,9.40
2019-03-21T09:01:24.989Z,9.80
2019-03-21T09:06:17.346Z,9.80
2019-03-21T09:11:09.591Z,11.20
2019-03-21T09:16:02.206Z,9.80
2019-03-21T09:20:54.766Z,11.10
2019-03-21T09:25:47.048Z,9.80
2019-03-21T09:30:39.334Z,10.00
2019-03-21T09:35:31.785Z,11.80
2019-03-21T09:40:24.246Z,10.50
2019-03-21T09:45:16.687Z,11.30
2019-03-21T09:50:09.254Z,8.60
2019-03-21T09:55:02.059Z,11.00
2019-03-21T09:59:52.921Z,10.80
2019-03-21T10:04:44.563Z,9.60
2019-03-21T10:09:36.029Z,11.20
2019-03-21T10:14:27.604Z,9.80
2019-03-21T10:19:19.041Z,10.70
2019-03-21T10:24:10.485Z,10.50
2019-03-21T10:29:01.363Z,11.10
2019-03-21T10:33:52.944Z,9.70
2019-03-21T10:38:45.252Z,9.50
2019-03-21T10:43:37.788Z,8.90
2019-03-21T10:48:30.198Z,8.30
2019-03-21T10:53:22.527Z,6.40
2019-03-21T10:58:17.538Z,7.00
2019-03-21T11:03:09.615Z,7.30
2019-03-21T11:08:02.102Z,6.30
2019-03-21T11:12:54.553Z,6.00
2019-03-21T11:17:46.782Z,6.40
2019-03-21T11:22:38.994Z,7.10
2019-03-21T11:27:33.330Z,6.20
2019-03-21T11:32:25.291Z,6.20
2019-03-21T11:37:17.911Z,5.60
2019-03-21T11:42:10.322Z,7.10
2019-03-21T11:47:02.704Z,6.10
2019-03-21T11:51:55.378Z,6.10
2019-03-21T11:56:47.993Z,5.40
2019-03-21T12:01:40.468Z,7.30
2019-03-21T12:06:32.706Z,4.00
2019-03-21T12:11:24.958Z,3.90
2019-03-21T12:16:17.430Z,5.40
2019-03-21T12:21:10.106Z,5.00
2019-03-21T12:26:02.647Z,4.60
2019-03-21T12:30:55.295Z,2.10
2019-03-21T12:35:48.001Z,3.50
2019-03-21T12:40:40.884Z,3.40
2019-03-21T12:45:33.720Z,4.40
2019-03-21T12:50:26.562Z,6.00
2019-03-21T12:55:19.099Z,7.20
2019-03-21T13:00:11.782Z,5.50
2019-03-21T13:05:04.489Z,6.00
2019-03-21T13:09:56.927Z,6.60
2019-03-21T13:14:48.804Z,5.40
2019-03-21T13:19:41.030Z,6.20
2019-03-21T13:24:33.546Z,5.80
2019-03-21T13:29:26.272Z,6.70
2019-03-21T13:34:18.801Z,5.80
2019-03-21T13:39:12.022Z,6.00
2019-03-21T13:44:06.139Z,6.30
2019-03-21T13:48:57.691Z,6.60
2019-03-21T13:53:50.042Z,6.30
2019-03-21T13:58:42.352Z,6.60
2019-03-21T14:03:37.114Z,7.40
2019-03-21T14:08:29.149Z,7.20
2019-03-21T14:13:21.592Z,7.90
2019-03-21T14:18:13.900Z,8.20
2019-03-21T14:23:16.703Z,7.70
2019-03-21T14:28:07.411Z,7.60
2019-03-21T14:32:59.653Z,7.90
2019-03-21T14:37:51.757Z,6.70
2019-03-21T14:42:44.196Z,7.20
2019-03-21T14:47:37.093Z,8.30
2019-03-21T14:52:29.439Z,7.70
2019-03-21T14:57:22.709Z,6.70
2019-03-21T15:02:14.502Z,8.20
2019-03-21T15:07:06.392Z,7.70
2019-03-21T15:11:58.890Z,8.60
2019-03-21T15:16:51.234Z,8.30
2019-03-21T15:21:43.076Z,7.00
2019-03-21T15:26:35.330Z,7.50
2019-03-21T15:31:27.414Z,7.70
2019-03-21T15:36:19.806Z,7.20
2019-03-21T15:41:13.018Z,7.30
2019-03-21T15:46:05.053Z,7.50
2019-03-21T15:51:04.626Z,8.50
2019-03-21T15:55:55.351Z,7.90
2019-03-21T16:00:47.364Z,7.40
2019-03-21T16:05:39.443Z,7.60
2019-03-21T16:10:31.515Z,9.30
2019-03-21T16:15:24.009Z,8.10
2019-03-21T16:20:16.201Z,8.70
2019-03-21T16:25:08.259Z,8.90
2019-03-21T16:30:00.377Z,9.80
2019-03-21T16:34:54.823Z,10.90
2019-03-21T16:39:46.583Z,12.40
2019-03-21T16:44:38.891Z,11.50
2019-03-21T16:49:31.138Z,12.80
2019-03-21T16:54:23.419Z,13.20
2019-03-21T16:59:15.654Z,12.80
2019-03-21T17:04:07.766Z,11.10
2019-03-21T17:08:59.550Z,10.60
2019-03-21T17:13:51.835Z,11.60
2019-03-21T17:18:44.172Z,11.40
2019-03-21T17:23:36.324Z,11.50
2019-03-21T17:28:28.428Z,10.90
2019-03-21T17:33:20.658Z,11.30
2019-03-21T17:38:12.565Z,9.70
2019-03-21T17:43:04.789Z,11.60
2019-03-21T17:47:59.092Z,11.30
2019-03-21T17:52:50.549Z,10.70
2019-03-21T17:57:42.621Z,12.70
2019-03-21T18:02:36.854Z,11.20
2019-03-21T18:07:28.628Z,23.50
2019-03-21T18:12:20.981Z,15.00
2019-03-21T18:17:12.987Z,13.70
2019-03-21T18:22:05.044Z,13.50
2019-03-21T18:26:57.006Z,15.00
2019-03-21T18:31:48.964Z,14.60
2019-03-21T18:36:41.141Z,14.80
2019-03-21T18:41:33.015Z,18.20
2019-03-21T18:46:26.893Z,16.50
2019-03-21T18:51:18.509Z,16.30
2019-03-21T18:56:10.307Z,15.00
2019-03-21T19:01:02.399Z,14.60
2019-03-21T19:05:54.385Z,15.10
2019-03-21T19:10:46.325Z,13.70
2019-03-21T19:15:38.295Z,14.70
2019-03-21T19:20:30.395Z,15.20
2019-03-21T19:25:22.346Z,15.60
2019-03-21T19:30:15.266Z,17.50
2019-03-21T19:35:07.621Z,20.40
2019-03-21T19:39:59.535Z,21.50
2019-03-21T19:44:51.550Z,21.10
2019-03-21T19:49:43.743Z,20.10
2019-03-21T19:54:35.699Z,16.50
2019-03-21T19:59:27.632Z,18.20
2019-03-21T20:04:19.738Z,16.30
2019-03-21T20:09:11.810Z,18.20
2019-03-21T20:14:04.606Z,20.30
2019-03-21T20:18:56.204Z,18.00
2019-03-21T20:23:48.097Z,18.90
2019-03-21T20:28:40.241Z,21.00
2019-03-21T20:33:32.175Z,18.40
2019-03-21T20:38:24.195Z,20.60
2019-03-21T20:43:16.281Z,19.40
2019-03-21T20:48:08.373Z,19.50
2019-03-21T20:53:00.351Z,19.30
2019-03-21T20:57:52.545Z,22.30
2019-03-21T21:02:44.478Z,19.30
2019-03-21T21:07:36.632Z,22.80
2019-03-21T21:12:28.736Z,21.90
2019-03-21T21:17:20.645Z,21.50
2019-03-21T21:22:12.489Z,21.10
2019-03-21T21:27:04.662Z,20.80
2019-03-21T21:31:56.485Z,19.60
2019-03-21T21:36:48.530Z,20.70
2019-03-21T21:41:40.394Z,21.90
2019-03-21T21:46:32.427Z,19.80
2019-03-21T21:51:24.470Z,20.70
2019-03-21T21:56:18.386Z,22.20
2019-03-21T22:01:10.519Z,19.60
2019-03-21T22:06:05.342Z,25.20
2019-03-21T22:10:56.546Z,21.80
2019-03-21T22:15:48.568Z,22.20
2019-03-21T22:20:40.658Z,23.90
2019-03-21T22:25:34.975Z,27.00
2019-03-21T22:30:26.381Z,25.00
2019-03-21T22:35:18.448Z,23.20
2019-03-21T22:40:10.347Z,26.90
